Terminal Aerodrome Forecast
Issued by NWS

Home | Current Version | Previous Version | Text Only | Print | Product List | Glossary On
Versions: 1 2 3 4 5 6 7 8 9 10 11 12 13 14 15 16 17 18 19 20 21 22 23 24 25
196
FTUS41 KBTV 030538
TAFMPV
TAF
KMPV 030538Z 0306/0406 30008KT 4SM -SHSN BR SCT025 OVC035
      TEMPO 0306/0310 2SM -SHSN BR OVC025
     FM031000 31008KT P6SM VCSH OVC025
     FM040000 31009KT P6SM OVC020=

USA.gov is the U.S. government's official web portal to all federal, state and local government web resources and services.